Time;durP1;ratioP1;P1;durP2;ratioP2;P2;SDS_P1;SDS_P2;PMS_P1;PMS_P2;Temp;Humidity;BMP_temperature;BMP_pressure;BME280_temperature;BME280_humidity;BME280_pressure;Samples;Min_cycle;Max_cycle;Signal;HPM_P1;HPM_P2
2022/03/07 00:01:28;;;;;;;13.63;11.77;;;2.30;98.80;;;;;;4980116;28;20244;-64
2022/03/07 00:03:55;;;;;;;14.88;12.63;;;2.20;98.60;;;;;;4986642;28;20221;-65
2022/03/07 00:06:22;;;;;;;14.65;12.38;;;2.20;99.00;;;;;;4986784;28;20204;-65
2022/03/07 00:08:50;;;;;;;13.18;11.77;;;2.10;99.00;;;;;;4987990;28;20287;-65
2022/03/07 00:11:17;;;;;;;15.20;12.57;;;2.00;99.10;;;;;;4986967;28;20668;-65
2022/03/07 00:13:44;;;;;;;13.02;11.70;;;2.00;99.20;;;;;;4990596;28;20307;-65
2022/03/07 00:16:11;;;;;;;13.10;11.70;;;2.00;99.50;;;;;;4986713;28;20716;-65
2022/03/07 00:18:40;;;;;;;14.90;12.85;;;2.00;99.30;;;;;;4991581;28;20290;-65
2022/03/07 00:21:09;;;;;;;14.93;12.15;;;2.10;99.60;;;;;;4991300;28;20209;-65
2022/03/07 00:23:36;;;;;;;15.88;11.57;;;2.00;99.30;;;;;;4987579;28;20247;-65
2022/03/07 00:26:03;;;;;;;12.95;11.65;;;2.00;99.20;;;;;;4992793;28;20215;-65
2022/03/07 00:28:30;;;;;;;14.98;12.30;;;2.00;99.20;;;;;;4988678;28;20227;-65
2022/03/07 00:30:57;;;;;;;15.57;12.90;;;2.00;99.30;;;;;;4991114;28;20216;-65
2022/03/07 00:33:24;;;;;;;13.77;11.68;;;2.00;99.40;;;;;;4991833;28;20196;-65
2022/03/07 00:35:52;;;;;;;15.68;12.45;;;2.00;99.50;;;;;;4994299;28;20672;-65
2022/03/07 00:38:20;;;;;;;15.45;12.88;;;2.00;99.60;;;;;;4987381;28;20197;-65
2022/03/07 00:40:47;;;;;;;13.18;11.77;;;2.00;99.70;;;;;;5008691;23;20233;-83
2022/03/07 00:43:14;;;;;;;15.95;12.35;;;2.10;99.60;;;;;;4996091;28;20279;-83
2022/03/07 00:45:42;;;;;;;15.00;12.20;;;2.00;99.70;;;;;;4994527;28;20241;-83
2022/03/07 00:48:09;;;;;;;14.68;12.10;;;2.00;99.70;;;;;;4995365;28;20211;-82
2022/03/07 00:50:42;;;;;;;14.32;12.70;;;1.90;99.80;;;;;;4992934;28;20222;-83
2022/03/07 00:53:10;;;;;;;14.60;12.15;;;1.90;99.90;;;;;;4986879;28;20283;-81
2022/03/07 00:55:38;;;;;;;13.30;11.68;;;1.80;99.90;;;;;;4988761;28;20221;-80
2022/03/07 00:58:05;;;;;;;12.82;10.95;;;1.80;99.90;;;;;;4992592;28;20194;-82
2022/03/07 01:00:35;;;;;;;14.07;12.50;;;1.80;99.90;;;;;;4996996;28;20224;-83
2022/03/07 01:03:03;;;;;;;16.27;13.10;;;1.80;99.90;;;;;;4991034;28;20224;-79
2022/03/07 01:05:30;;;;;;;13.15;11.57;;;1.80;99.90;;;;;;4990078;28;20283;-80
2022/03/07 01:07:57;;;;;;;12.95;11.45;;;1.80;99.90;;;;;;4989270;28;20240;-81
2022/03/07 01:10:26;;;;;;;15.98;12.35;;;1.70;99.90;;;;;;4994344;28;20272;-81
2022/03/07 01:12:53;;;;;;;12.32;11.10;;;1.60;99.90;;;;;;4992037;28;20259;-81
2022/03/07 01:15:21;;;;;;;14.98;12.27;;;1.60;99.90;;;;;;4989260;28;20259;-78
2022/03/07 01:17:49;;;;;;;14.00;12.38;;;1.60;99.90;;;;;;4989578;28;20304;-80
2022/03/07 01:20:16;;;;;;;14.48;11.70;;;1.60;99.90;;;;;;4989695;28;20224;-78
2022/03/07 01:22:43;;;;;;;13.80;11.18;;;1.60;99.90;;;;;;4988754;28;20228;-81
2022/03/07 01:25:11;;;;;;;14.43;12.75;;;1.60;99.90;;;;;;4989905;28;20217;-81
2022/03/07 01:27:40;;;;;;;11.88;10.68;;;1.60;99.90;;;;;;4989060;28;20227;-80
2022/03/07 01:30:08;;;;;;;13.07;11.10;;;1.60;99.90;;;;;;4999748;28;20220;-81
2022/03/07 01:32:35;;;;;;;13.77;10.95;;;1.60;99.90;;;;;;4994203;28;20233;-82
2022/03/07 01:35:03;;;;;;;14.20;11.23;;;1.60;99.90;;;;;;4984345;28;20217;-82
2022/03/07 01:37:30;;;;;;;13.57;11.20;;;1.60;99.90;;;;;;4986759;28;20224;-81
2022/03/07 01:39:57;;;;;;;14.15;11.27;;;1.60;99.90;;;;;;4984499;28;20283;-82
2022/03/07 01:42:24;;;;;;;13.27;11.88;;;1.50;99.90;;;;;;4986332;28;20274;-81
2022/03/07 01:44:52;;;;;;;13.68;11.23;;;1.50;99.90;;;;;;4987415;28;21025;-81
2022/03/07 01:47:19;;;;;;;13.68;11.73;;;1.50;99.90;;;;;;4987776;28;20208;-83
2022/03/07 01:49:47;;;;;;;14.07;11.70;;;1.40;99.90;;;;;;4993510;28;20232;-80
2022/03/07 01:52:18;;;;;;;14.27;11.63;;;1.40;99.90;;;;;;4985500;28;20240;-81
2022/03/07 01:54:45;;;;;;;14.07;11.52;;;1.40;99.90;;;;;;4994734;28;20236;-80
2022/03/07 01:57:14;;;;;;;12.40;11.07;;;1.40;99.90;;;;;;4991615;28;20193;-81
2022/03/07 01:59:42;;;;;;;13.60;11.35;;;1.30;99.90;;;;;;4976148;28;20217;-81
2022/03/07 02:02:10;;;;;;;12.88;11.30;;;1.30;99.90;;;;;;4970521;28;20200;-81
2022/03/07 02:04:39;;;;;;;13.07;11.52;;;1.30;99.90;;;;;;4963023;28;20226;-81
2022/03/07 02:07:06;;;;;;;13.15;11.43;;;1.20;99.90;;;;;;4967995;28;20598;-81
2022/03/07 02:09:34;;;;;;;13.38;11.25;;;1.10;99.90;;;;;;4965382;28;20280;-81
2022/03/07 02:12:01;;;;;;;12.65;11.13;;;1.10;99.90;;;;;;4967057;28;20205;-81
2022/03/07 02:14:28;;;;;;;13.63;11.98;;;1.00;99.90;;;;;;4969086;28;20220;-81
2022/03/07 02:16:55;;;;;;;12.90;10.82;;;1.10;99.90;;;;;;4967649;28;20201;-80
2022/03/07 02:19:23;;;;;;;12.60;11.13;;;1.10;99.90;;;;;;4959712;28;20218;-80
2022/03/07 02:21:53;;;;;;;15.80;11.32;;;1.00;99.90;;;;;;4969219;28;20744;-81
2022/03/07 02:24:21;;;;;;;13.50;11.85;;;1.00;99.90;;;;;;4967034;28;20289;-80
2022/03/07 02:26:57;;;;;;;15.15;12.55;;;1.10;99.90;;;;;;4967974;28;20209;-81
2022/03/07 02:29:24;;;;;;;15.52;12.10;;;1.00;99.90;;;;;;4968820;28;20252;-82
2022/03/07 02:31:51;;;;;;;15.35;12.38;;;1.00;99.90;;;;;;4966702;28;20227;-82
2022/03/07 02:34:19;;;;;;;13.43;12.05;;;1.00;99.90;;;;;;4967949;28;20284;-80
2022/03/07 02:36:46;;;;;;;14.30;12.23;;;0.90;99.90;;;;;;4962299;28;20202;-80
2022/03/07 02:39:13;;;;;;;15.63;12.85;;;0.90;99.90;;;;;;4964541;28;20700;-80
2022/03/07 02:41:42;;;;;;;13.35;11.50;;;0.90;99.90;;;;;;4960417;28;20214;-80
2022/03/07 02:44:10;;;;;;;14.75;11.63;;;0.80;99.90;;;;;;4967017;28;20603;-79
2022/03/07 02:46:37;;;;;;;14.00;12.50;;;0.80;99.90;;;;;;4966450;28;20208;-80
2022/03/07 02:49:05;;;;;;;13.48;11.70;;;0.80;99.90;;;;;;4966062;28;20747;-80
2022/03/07 02:51:32;;;;;;;14.98;13.38;;;0.70;99.90;;;;;;4962320;28;20773;-80
2022/03/07 02:53:59;;;;;;;15.27;12.70;;;0.70;99.90;;;;;;4963339;28;20625;-80
2022/03/07 02:56:26;;;;;;;13.52;12.13;;;0.70;99.90;;;;;;4966162;28;20201;-80
2022/03/07 02:58:55;;;;;;;13.05;10.98;;;0.70;99.90;;;;;;4961426;28;20218;-80
2022/03/07 03:01:22;;;;;;;16.48;12.68;;;0.70;99.90;;;;;;4965911;28;20261;-79
2022/03/07 03:03:49;;;;;;;15.70;11.93;;;0.70;99.90;;;;;;4966378;28;20236;-81
2022/03/07 03:06:17;;;;;;;14.73;12.85;;;0.70;99.90;;;;;;4968775;28;20229;-82
2022/03/07 03:08:44;;;;;;;13.73;11.65;;;0.60;99.90;;;;;;4965912;28;20241;-81
2022/03/07 03:11:11;;;;;;;12.35;10.68;;;0.60;99.90;;;;;;4965642;28;20222;-81
2022/03/07 03:13:38;;;;;;;12.32;10.90;;;0.60;99.90;;;;;;4965203;28;20194;-80
2022/03/07 03:16:07;;;;;;;14.02;12.02;;;0.60;99.90;;;;;;4965356;28;20711;-82
2022/03/07 03:18:35;;;;;;;14.77;11.65;;;0.70;99.90;;;;;;4967002;28;20197;-80
2022/03/07 03:21:02;;;;;;;13.80;12.18;;;0.70;99.90;;;;;;4964773;28;20578;-81
2022/03/07 03:23:29;;;;;;;14.02;12.05;;;0.70;99.90;;;;;;4968707;28;20225;-81
2022/03/07 03:25:56;;;;;;;13.45;11.32;;;0.70;99.90;;;;;;4968020;28;20227;-81
2022/03/07 03:28:24;;;;;;;14.18;11.68;;;0.70;99.90;;;;;;4967166;28;20205;-82
2022/03/07 03:30:51;;;;;;;13.93;11.38;;;0.70;99.90;;;;;;4965482;28;20221;-80
2022/03/07 03:33:20;;;;;;;13.98;12.15;;;0.60;99.90;;;;;;4969664;28;20197;-81
2022/03/07 03:35:47;;;;;;;12.25;10.98;;;0.60;99.90;;;;;;4967805;28;20226;-81
2022/03/07 03:38:14;;;;;;;12.40;11.10;;;0.60;99.90;;;;;;4962558;28;20198;-81
2022/03/07 03:40:42;;;;;;;12.50;11.27;;;0.60;99.90;;;;;;4967718;28;20268;-83
2022/03/07 03:43:09;;;;;;;14.32;10.60;;;0.60;99.90;;;;;;4974035;28;20217;-83
2022/03/07 03:45:36;;;;;;;12.65;11.23;;;0.60;99.90;;;;;;4970901;28;20221;-81
2022/03/07 03:48:04;;;;;;;13.68;11.23;;;0.60;99.90;;;;;;4972173;28;20194;-81
2022/03/07 03:50:33;;;;;;;14.30;12.10;;;0.60;99.90;;;;;;4972380;28;20607;-82
2022/03/07 03:53:00;;;;;;;14.07;11.60;;;0.60;99.90;;;;;;4970316;28;20261;-81
2022/03/07 03:55:27;;;;;;;15.27;12.18;;;0.60;99.90;;;;;;4973707;28;20292;-81
2022/03/07 03:57:54;;;;;;;14.50;12.05;;;0.60;99.90;;;;;;4968544;28;20296;-81
2022/03/07 04:00:21;;;;;;;13.27;11.75;;;0.60;99.90;;;;;;4971573;28;20225;-82
2022/03/07 04:02:48;;;;;;;13.80;11.32;;;0.60;99.90;;;;;;4966246;28;20198;-80
2022/03/07 04:05:16;;;;;;;12.02;10.75;;;0.60;99.90;;;;;;4964834;28;20273;-81
2022/03/07 04:07:46;;;;;;;12.18;10.38;;;0.60;99.90;;;;;;4972976;28;20232;-81
2022/03/07 04:10:14;;;;;;;13.18;11.75;;;0.60;99.90;;;;;;4972690;28;20704;-81
2022/03/07 04:12:42;;;;;;;12.27;10.98;;;0.60;99.90;;;;;;4972348;28;20230;-82
2022/03/07 04:15:10;;;;;;;13.18;11.75;;;0.50;99.90;;;;;;4970225;28;20296;-82
2022/03/07 04:17:41;;;;;;;12.15;10.63;;;0.50;99.90;;;;;;4970177;28;20640;-82
2022/03/07 04:20:09;;;;;;;13.80;11.65;;;0.50;99.90;;;;;;4979292;28;20964;-83
2022/03/07 04:22:37;;;;;;;12.68;11.00;;;0.50;99.90;;;;;;4989035;28;20592;-81
2022/03/07 04:25:08;;;;;;;13.35;11.95;;;0.50;99.90;;;;;;4985276;28;20338;-81
2022/03/07 04:27:35;;;;;;;12.90;10.48;;;0.50;99.90;;;;;;4960699;28;20191;-81
2022/03/07 04:30:04;;;;;;;14.57;11.68;;;0.40;99.90;;;;;;4975124;28;20309;-80
2022/03/07 04:32:33;;;;;;;12.45;10.93;;;0.40;99.90;;;;;;4983418;28;20237;-80
2022/03/07 04:35:03;;;;;;;12.20;10.82;;;0.40;99.90;;;;;;4982181;28;20225;-80
2022/03/07 04:37:31;;;;;;;13.23;11.85;;;0.40;99.90;;;;;;4968044;28;20257;-83
2022/03/07 04:39:58;;;;;;;13.82;12.43;;;0.40;99.90;;;;;;4979877;28;20254;-82
2022/03/07 04:42:27;;;;;;;13.10;11.73;;;0.40;99.90;;;;;;4970125;28;20201;-80
2022/03/07 04:44:55;;;;;;;13.02;11.73;;;0.40;99.90;;;;;;4968539;28;20688;-82
2022/03/07 04:47:22;;;;;;;13.65;11.95;;;0.40;99.90;;;;;;4970796;28;20260;-81
2022/03/07 04:49:49;;;;;;;12.82;11.48;;;0.30;99.90;;;;;;4970531;28;20237;-80
2022/03/07 04:52:16;;;;;;;14.98;12.55;;;0.30;99.90;;;;;;4976135;28;20208;-82
2022/03/07 04:54:43;;;;;;;14.02;12.38;;;0.30;99.90;;;;;;4965994;28;20229;-82
2022/03/07 04:57:10;;;;;;;13.70;12.27;;;0.20;99.90;;;;;;4971383;28;20210;-80
2022/03/07 04:59:38;;;;;;;12.68;11.35;;;0.20;99.90;;;;;;4969391;28;20201;-81
2022/03/07 05:02:05;;;;;;;13.68;11.85;;;0.20;99.90;;;;;;4966527;28;20198;-82
2022/03/07 05:04:32;;;;;;;11.98;10.48;;;0.20;99.90;;;;;;4970453;28;20298;-80
2022/03/07 05:06:59;;;;;;;12.00;10.60;;;0.20;99.90;;;;;;4966355;28;20213;-80
2022/03/07 05:09:27;;;;;;;11.65;10.45;;;0.30;99.90;;;;;;4967290;28;20260;-79
2022/03/07 05:11:54;;;;;;;13.18;11.88;;;0.30;99.90;;;;;;4969705;28;20299;-79
2022/03/07 05:14:21;;;;;;;14.38;11.88;;;0.30;99.90;;;;;;4966381;28;20264;-79
2022/03/07 05:16:49;;;;;;;15.32;13.73;;;0.30;99.90;;;;;;4969117;28;20221;-82
2022/03/07 05:19:16;;;;;;;15.18;13.20;;;0.30;99.90;;;;;;4968006;28;20253;-82
2022/03/07 05:21:43;;;;;;;13.73;12.32;;;0.30;99.90;;;;;;4968281;28;20766;-81
2022/03/07 05:24:10;;;;;;;15.38;12.07;;;0.20;99.90;;;;;;4967511;28;20225;-82
2022/03/07 05:26:38;;;;;;;14.00;12.60;;;0.20;99.90;;;;;;4967008;28;20221;-81
2022/03/07 05:29:06;;;;;;;14.02;12.18;;;0.20;99.90;;;;;;4965258;28;20201;-80
2022/03/07 05:31:33;;;;;;;13.90;12.48;;;0.10;99.90;;;;;;4965445;28;20297;-82
2022/03/07 05:34:02;;;;;;;14.00;12.57;;;0.10;99.90;;;;;;4966757;28;20342;-81
2022/03/07 05:36:33;;;;;;;15.30;12.75;;;0.10;99.90;;;;;;4965088;28;20803;-81
2022/03/07 05:39:00;;;;;;;14.73;13.18;;;0.10;99.90;;;;;;4967044;28;20206;-80
2022/03/07 05:41:27;;;;;;;14.73;12.40;;;0.10;99.90;;;;;;4969887;28;20654;-81
2022/03/07 05:43:54;;;;;;;12.98;11.63;;;0.10;99.90;;;;;;4963485;28;20225;-80
2022/03/07 05:46:21;;;;;;;12.52;11.20;;;0.20;99.90;;;;;;4969189;28;20297;-81
2022/03/07 05:48:49;;;;;;;13.02;11.68;;;0.20;99.90;;;;;;4969364;28;20204;-81
2022/03/07 05:51:22;;;;;;;12.63;10.77;;;0.20;99.90;;;;;;4968819;28;20232;-81
2022/03/07 05:53:49;;;;;;;13.27;11.88;;;0.30;99.90;;;;;;4969042;28;20198;-80
2022/03/07 05:56:16;;;;;;;13.70;12.30;;;0.30;99.90;;;;;;4966013;28;20667;-79
2022/03/07 05:58:44;;;;;;;11.60;10.40;;;0.20;99.90;;;;;;4967598;28;20537;-80
2022/03/07 06:01:11;;;;;;;13.60;11.70;;;0.30;99.90;;;;;;4969508;28;20232;-81
2022/03/07 06:03:38;;;;;;;14.00;11.48;;;0.30;99.90;;;;;;4967020;28;20189;-80
2022/03/07 06:06:05;;;;;;;13.15;11.75;;;0.30;99.90;;;;;;4967525;28;20240;-79
2022/03/07 06:08:35;;;;;;;12.95;11.02;;;0.20;99.90;;;;;;4966987;28;20272;-81
2022/03/07 06:11:02;;;;;;;14.23;12.70;;;0.20;99.90;;;;;;4965860;28;20237;-80
2022/03/07 06:13:30;;;;;;;12.50;11.20;;;0.20;99.90;;;;;;4967839;28;20200;-81
2022/03/07 06:15:57;;;;;;;13.43;12.02;;;0.30;99.90;;;;;;4960832;28;20299;-79
2022/03/07 06:18:25;;;;;;;14.13;12.27;;;0.30;99.90;;;;;;4965869;28;20261;-79
2022/03/07 06:20:52;;;;;;;12.02;10.30;;;0.30;99.90;;;;;;4968534;28;20217;-79
2022/03/07 06:23:19;;;;;;;15.55;12.68;;;0.30;99.90;;;;;;4965835;28;20255;-80
2022/03/07 06:25:47;;;;;;;13.98;12.23;;;0.30;99.90;;;;;;4963169;28;20259;-79
2022/03/07 06:28:15;;;;;;;15.23;13.60;;;0.30;99.90;;;;;;4963213;28;20198;-79
2022/03/07 06:30:42;;;;;;;12.77;11.48;;;0.40;99.90;;;;;;4960753;28;20313;-80
2022/03/07 06:33:09;;;;;;;13.98;12.48;;;0.40;99.90;;;;;;4962099;28;20204;-79
2022/03/07 06:35:36;;;;;;;14.32;12.82;;;0.40;99.90;;;;;;4967593;28;20250;-79
2022/03/07 06:38:03;;;;;;;13.38;11.63;;;0.40;99.90;;;;;;4968358;28;20197;-80
2022/03/07 06:40:31;;;;;;;12.90;11.52;;;0.40;99.90;;;;;;4964798;28;20233;-82
2022/03/07 06:43:00;;;;;;;20.45;12.93;;;0.40;99.90;;;;;;4964360;28;20241;-81
2022/03/07 06:45:29;;;;;;;15.00;12.27;;;0.50;99.90;;;;;;4962259;28;20272;-81
2022/03/07 06:47:57;;;;;;;12.35;11.02;;;0.50;99.90;;;;;;4963494;28;22098;-81
2022/03/07 06:50:25;;;;;;;12.23;10.88;;;0.60;99.90;;;;;;4962706;28;20224;-81
2022/03/07 06:52:52;;;;;;;14.55;11.95;;;0.70;99.90;;;;;;4963653;28;20206;-81
2022/03/07 06:55:19;;;;;;;16.05;13.38;;;0.90;99.90;;;;;;4961049;28;20237;-81
2022/03/07 06:57:47;;;;;;;15.05;12.70;;;1.40;99.90;;;;;;4960263;28;20205;-81
2022/03/07 07:00:17;;;;;;;14.88;12.43;;;2.20;99.90;;;;;;4957989;28;20233;-81
2022/03/07 07:02:46;;;;;;;17.15;14.18;;;2.80;99.90;;;;;;4957825;28;20204;-81
2022/03/07 07:05:14;;;;;;;16.35;13.85;;;3.50;99.90;;;;;;4963815;28;20688;-80
2022/03/07 07:07:42;;;;;;;16.20;13.88;;;4.00;99.90;;;;;;4963627;28;20256;-82
2022/03/07 07:10:10;;;;;;;14.95;13.45;;;4.40;99.90;;;;;;4958566;28;20221;-82
2022/03/07 07:12:38;;;;;;;15.45;12.80;;;4.80;99.90;;;;;;4968471;28;20207;-82
2022/03/07 07:15:07;;;;;;;15.07;13.48;;;5.20;99.90;;;;;;4962121;28;20197;-82
2022/03/07 07:17:36;;;;;;;15.48;13.45;;;5.60;99.60;;;;;;4965681;28;20206;-81
2022/03/07 07:20:03;;;;;;;20.48;15.93;;;6.10;99.00;;;;;;4963974;28;20206;-80
2022/03/07 07:22:31;;;;;;;24.85;18.10;;;6.30;98.70;;;;;;4966810;28;20945;-82
2022/03/07 07:24:58;;;;;;;28.30;18.58;;;6.60;98.40;;;;;;4971734;28;20309;-81
2022/03/07 07:27:25;;;;;;;22.08;16.48;;;6.90;98.20;;;;;;4970089;28;20212;-80
2022/03/07 07:29:52;;;;;;;21.17;16.30;;;7.00;98.10;;;;;;4967437;28;20202;-81
2022/03/07 07:32:21;;;;;;;18.15;14.25;;;7.30;97.90;;;;;;4966502;28;20224;-80
2022/03/07 07:34:50;;;;;;;16.90;14.85;;;7.40;97.60;;;;;;4964058;28;20202;-81
2022/03/07 07:37:17;;;;;;;15.48;13.23;;;7.60;97.20;;;;;;4963440;28;20221;-81
2022/03/07 07:39:44;;;;;;;17.20;14.00;;;7.90;96.80;;;;;;4962737;28;20216;-80
2022/03/07 07:42:11;;;;;;;18.15;14.82;;;8.10;96.30;;;;;;4967209;28;20268;-81
2022/03/07 07:44:38;;;;;;;17.65;14.18;;;8.10;96.10;;;;;;4971308;28;20274;-81
2022/03/07 07:47:07;;;;;;;15.98;12.98;;;8.20;96.10;;;;;;4971715;28;20249;-83
2022/03/07 07:49:34;;;;;;;15.88;13.23;;;8.40;94.90;;;;;;4971855;28;20209;-79
2022/03/07 07:52:03;;;;;;;18.23;14.20;;;8.40;95.10;;;;;;4966242;28;20226;-82
2022/03/07 07:54:31;;;;;;;16.48;13.10;;;8.20;94.40;;;;;;4973278;28;20285;-80
2022/03/07 07:56:58;;;;;;;14.77;13.27;;;8.10;94.40;;;;;;4964933;28;20317;-80
2022/03/07 07:59:25;;;;;;;15.23;13.23;;;8.10;94.90;;;;;;4966749;28;20338;-79
2022/03/07 08:01:52;;;;;;;15.32;13.70;;;8.30;95.50;;;;;;4964470;28;20228;-79
2022/03/07 08:04:19;;;;;;;15.20;13.05;;;8.50;94.20;;;;;;4965684;28;20261;-81
2022/03/07 08:06:46;;;;;;;16.00;12.38;;;8.80;93.80;;;;;;4978024;28;20594;-81
2022/03/07 08:09:16;;;;;;;15.68;13.18;;;8.90;93.30;;;;;;4960081;28;20226;-81
2022/03/07 08:11:44;;;;;;;14.50;13.00;;;9.00;92.80;;;;;;4966005;28;20222;-78
2022/03/07 08:14:11;;;;;;;15.02;13.00;;;9.00;92.80;;;;;;4960247;28;20216;-79
2022/03/07 08:16:38;;;;;;;14.57;12.68;;;9.10;92.30;;;;;;4961895;28;20336;-79
2022/03/07 08:19:05;;;;;;;15.13;11.85;;;8.90;92.30;;;;;;4962861;28;20664;-80
2022/03/07 08:21:33;;;;;;;16.38;12.10;;;8.90;92.70;;;;;;4968343;28;20229;-81
2022/03/07 08:24:01;;;;;;;16.55;13.50;;;9.10;92.80;;;;;;4964915;28;20202;-81
2022/03/07 08:26:29;;;;;;;14.70;12.73;;;9.20;92.50;;;;;;4971135;28;20658;-81
2022/03/07 08:28:57;;;;;;;15.07;12.25;;;9.50;92.00;;;;;;4963947;28;20205;-81
2022/03/07 08:31:24;;;;;;;13.90;12.43;;;9.70;92.10;;;;;;4962824;28;20218;-81
2022/03/07 08:33:51;;;;;;;16.13;13.48;;;9.70;91.90;;;;;;4964813;28;20205;-82
2022/03/07 08:36:19;;;;;;;16.45;12.82;;;9.50;92.00;;;;;;4966030;28;20242;-83
2022/03/07 08:38:46;;;;;;;15.52;13.73;;;9.30;91.60;;;;;;4971217;28;20237;-82
2022/03/07 08:41:13;;;;;;;22.60;13.07;;;9.20;92.20;;;;;;4968227;28;20222;-82
2022/03/07 08:43:42;;;;;;;21.92;13.55;;;9.10;92.90;;;;;;4970800;28;20198;-82
2022/03/07 08:46:09;;;;;;;17.75;13.75;;;9.00;93.30;;;;;;4966199;28;20229;-81
2022/03/07 08:48:36;;;;;;;17.08;13.60;;;9.20;93.10;;;;;;4974225;28;20258;-81
2022/03/07 08:51:03;;;;;;;17.23;14.10;;;9.50;92.60;;;;;;4967090;28;20229;-81
2022/03/07 08:53:30;;;;;;;16.75;12.38;;;9.70;92.60;;;;;;4969413;28;20200;-83
2022/03/07 08:55:58;;;;;;;19.70;14.85;;;9.90;92.00;;;;;;4976555;28;20230;-85
2022/03/07 08:58:25;;;;;;;16.67;14.13;;;9.80;92.00;;;;;;4985337;28;20193;-84
2022/03/07 09:00:53;;;;;;;15.75;13.80;;;9.60;92.20;;;;;;4981424;28;20670;-83
2022/03/07 09:03:21;;;;;;;16.52;12.57;;;9.80;91.60;;;;;;4989545;28;20200;-84
2022/03/07 09:05:48;;;;;;;14.65;11.63;;;9.70;91.10;;;;;;4991814;28;20257;-84
2022/03/07 09:08:15;;;;;;;13.43;11.90;;;10.00;90.60;;;;;;4985495;28;20225;-85
2022/03/07 09:10:42;;;;;;;12.23;10.75;;;10.20;90.60;;;;;;4986098;28;20225;-86
2022/03/07 09:13:09;;;;;;;12.95;11.55;;;10.20;90.00;;;;;;4986375;28;20237;-85
2022/03/07 09:15:36;;;;;;;12.02;10.75;;;10.60;88.70;;;;;;4983690;28;20202;-85
2022/03/07 09:18:05;;;;;;;12.63;11.27;;;10.30;88.10;;;;;;4987742;28;20202;-86
2022/03/07 09:20:32;;;;;;;14.73;12.48;;;10.30;89.10;;;;;;4987416;28;20194;-82
2022/03/07 09:22:59;;;;;;;14.25;12.00;;;10.30;87.80;;;;;;4978398;28;20209;-83
2022/03/07 09:25:26;;;;;;;13.25;11.55;;;10.40;88.10;;;;;;4981547;28;20198;-85
2022/03/07 09:27:54;;;;;;;13.63;11.25;;;10.50;87.30;;;;;;4980018;28;20198;-83
2022/03/07 09:30:21;;;;;;;12.68;11.38;;;10.90;86.80;;;;;;4989285;28;20213;-85
2022/03/07 09:32:48;;;;;;;12.60;11.30;;;10.80;86.20;;;;;;4989415;28;20221;-86
2022/03/07 09:35:17;;;;;;;12.45;11.15;;;10.90;85.00;;;;;;4988030;28;20645;-85
2022/03/07 09:37:44;;;;;;;12.63;11.30;;;11.10;85.00;;;;;;4985985;28;20214;-86
2022/03/07 09:40:13;;;;;;;12.98;10.52;;;11.30;85.20;;;;;;4992440;28;20394;-85
2022/03/07 09:42:40;;;;;;;13.02;11.65;;;11.80;84.20;;;;;;4990190;28;20226;-85
2022/03/07 09:45:09;;;;;;;14.65;11.73;;;11.60;84.40;;;;;;4987342;28;20222;-86
2022/03/07 09:47:39;;;;;;;12.93;11.25;;;11.40;82.70;;;;;;4989627;28;20221;-85
2022/03/07 09:50:08;;;;;;;13.05;11.38;;;11.40;84.20;;;;;;4988767;28;20198;-83
2022/03/07 09:52:37;;;;;;;12.13;10.88;;;11.30;83.80;;;;;;4986959;28;20249;-86
2022/03/07 09:55:07;;;;;;;11.50;10.30;;;11.30;84.40;;;;;;4988578;28;20198;-85
2022/03/07 09:57:34;;;;;;;12.60;11.30;;;11.40;83.40;;;;;;4988686;28;20205;-86
2022/03/07 10:00:02;;;;;;;13.32;11.52;;;11.70;82.30;;;;;;4987927;28;20210;-86
2022/03/07 10:02:29;;;;;;;14.00;11.75;;;12.00;81.80;;;;;;4986640;28;20218;-87
2022/03/07 10:05:02;;;;;;;13.88;12.45;;;12.10;81.00;;;;;;4992250;28;20202;-86
2022/03/07 10:07:29;;;;;;;14.00;12.05;;;11.70;80.40;;;;;;4990759;28;20221;-87
2022/03/07 10:10:06;;;;;;;12.85;11.55;;;11.60;81.80;;;;;;4989325;28;20220;-87
2022/03/07 10:12:33;;;;;;;12.45;11.15;;;11.60;80.90;;;;;;4990425;28;20208;-84
2022/03/07 10:15:11;;;;;;;13.50;11.88;;;12.20;81.10;;;;;;4987625;28;20202;-82
2022/03/07 10:17:41;;;;;;;15.85;11.85;;;12.10;79.20;;;;;;4985462;28;20217;-84
2022/03/07 10:20:10;;;;;;;13.23;11.82;;;12.00;80.70;;;;;;4989181;28;20198;-85
2022/03/07 10:22:46;;;;;;;14.95;11.90;;;11.80;81.40;;;;;;4988375;28;20225;-84
2022/03/07 10:25:15;;;;;;;15.98;11.70;;;11.50;80.60;;;;;;4984981;28;20224;-83
2022/03/07 10:27:45;;;;;;;14.25;12.18;;;11.40;81.70;;;;;;4985132;28;20225;-83
2022/03/07 10:30:13;;;;;;;14.02;11.90;;;11.40;79.90;;;;;;4984656;28;20202;-84
2022/03/07 10:32:40;;;;;;;13.50;12.00;;;11.40;79.50;;;;;;4989371;28;20225;-85
2022/03/07 10:35:09;;;;;;;14.88;11.73;;;11.90;80.90;;;;;;4991443;28;20264;-85
2022/03/07 10:37:38;;;;;;;12.50;11.20;;;12.00;79.90;;;;;;4993433;28;20237;-87
2022/03/07 10:40:11;;;;;;;13.15;11.60;;;11.80;80.00;;;;;;4988985;28;20216;-86
2022/03/07 10:42:46;;;;;;;14.48;12.38;;;11.80;79.20;;;;;;4988915;28;20249;-86
2022/03/07 10:45:13;;;;;;;13.73;12.23;;;11.60;78.60;;;;;;4993344;28;20244;-85
2022/03/07 10:47:41;;;;;;;13.13;11.73;;;11.30;78.60;;;;;;4993750;28;20221;-85
2022/03/07 10:50:09;;;;;;;13.43;11.60;;;11.10;80.40;;;;;;4996444;28;20185;-86
2022/03/07 10:52:40;;;;;;;14.75;11.20;;;11.50;80.30;;;;;;4996510;28;20222;-86
2022/03/07 10:55:09;;;;;;;12.93;11.50;;;11.60;77.50;;;;;;5000327;28;20213;-86
2022/03/07 10:57:40;;;;;;;13.95;12.10;;;11.30;78.50;;;;;;4999293;28;20300;-85
2022/03/07 11:00:10;;;;;;;13.40;12.00;;;11.50;79.80;;;;;;4992373;28;20214;-87
2022/03/07 11:02:41;;;;;;;12.90;11.50;;;11.50;79.80;;;;;;4986374;28;20223;-87
2022/03/07 11:05:10;;;;;;;14.82;11.82;;;11.40;77.60;;;;;;5000128;28;20190;-86
2022/03/07 11:07:39;;;;;;;12.73;11.10;;;11.70;79.70;;;;;;5003271;28;20208;-87
2022/03/07 11:10:08;;;;;;;12.88;11.57;;;12.00;78.60;;;;;;4999740;28;20224;-87
2022/03/07 11:12:35;;;;;;;14.45;12.13;;;12.00;79.00;;;;;;5000022;28;20228;-87
2022/03/07 11:15:08;;;;;;;15.65;12.88;;;11.70;77.80;;;;;;5006144;23;20225;-78
2022/03/07 11:17:40;;;;;;;11.90;10.68;;;11.70;78.50;;;;;;4983298;28;20261;-77
2022/03/07 11:20:08;;;;;;;15.15;12.93;;;11.90;77.50;;;;;;4981809;28;20287;-78
2022/03/07 11:22:36;;;;;;;13.85;11.77;;;12.30;77.50;;;;;;4986164;28;20750;-77
2022/03/07 11:25:05;;;;;;;13.48;12.07;;;12.30;76.80;;;;;;4981438;28;20225;-77
2022/03/07 11:27:34;;;;;;;11.30;10.18;;;12.30;76.90;;;;;;4986705;28;20213;-78
2022/03/07 11:30:01;;;;;;;15.45;12.15;;;12.60;77.40;;;;;;4987647;28;20629;-77
2022/03/07 11:32:38;;;;;;;13.57;12.05;;;12.60;77.20;;;;;;4986443;28;20232;-78
2022/03/07 11:35:06;;;;;;;14.13;12.63;;;12.60;76.00;;;;;;4985761;28;20468;-77
2022/03/07 11:37:34;;;;;;;12.38;11.00;;;12.90;77.50;;;;;;4990712;28;20232;-77
2022/03/07 11:40:02;;;;;;;13.48;12.07;;;13.00;76.10;;;;;;4993166;28;20205;-78
2022/03/07 11:42:36;;;;;;;13.50;11.65;;;12.70;75.40;;;;;;4989118;28;20777;-79
2022/03/07 11:45:06;;;;;;;13.13;11.68;;;12.40;75.10;;;;;;4996150;28;20255;-77
2022/03/07 11:47:39;;;;;;;13.57;12.02;;;12.20;76.20;;;;;;4985551;28;20229;-77
2022/03/07 11:50:08;;;;;;;13.02;11.73;;;12.20;75.50;;;;;;4983262;28;20197;-77
2022/03/07 11:52:36;;;;;;;12.95;11.57;;;12.40;77.20;;;;;;4989509;28;20718;-81
2022/03/07 11:55:08;;;;;;;11.65;10.45;;;12.50;75.20;;;;;;4988124;28;20207;-76
2022/03/07 11:57:37;;;;;;;15.13;11.88;;;12.30;76.50;;;;;;4981308;28;20227;-78
2022/03/07 12:00:34;;;;;;;16.77;13.23;;;12.10;75.30;;;;;;4988158;28;20205;-78
2022/03/07 12:03:13;;;;;;;12.32;10.98;;;11.90;75.90;;;;;;4961606;28;20957;-78
2022/03/07 12:05:41;;;;;;;14.18;10.85;;;11.70;75.00;;;;;;4990426;28;20215;-79
2022/03/07 12:08:10;;;;;;;12.45;11.15;;;11.50;75.90;;;;;;4983977;28;20221;-74
2022/03/07 12:10:39;;;;;;;12.85;11.43;;;11.40;76.30;;;;;;4983421;28;20197;-79
2022/03/07 12:13:08;;;;;;;12.65;11.10;;;11.60;75.90;;;;;;4982883;28;20225;-78
2022/03/07 12:15:47;;;;;;;14.63;12.73;;;11.60;74.10;;;;;;4981873;28;20221;-79
2022/03/07 12:18:17;;;;;;;12.23;10.90;;;11.80;74.10;;;;;;4982379;28;20224;-79
2022/03/07 12:20:49;;;;;;;13.32;10.82;;;12.10;75.30;;;;;;4987128;28;20232;-77
2022/03/07 12:23:17;;;;;;;12.55;11.25;;;11.90;73.30;;;;;;4986925;28;20793;-77
2022/03/07 12:25:45;;;;;;;10.65;9.57;;;11.80;73.60;;;;;;4981423;28;20320;-75
2022/03/07 12:28:12;;;;;;;11.25;10.05;;;11.60;73.90;;;;;;4984222;28;20730;-78
2022/03/07 12:30:40;;;;;;;12.18;10.90;;;11.90;74.30;;;;;;4981956;28;21112;-78
2022/03/07 12:33:08;;;;;;;11.90;10.70;;;11.80;73.40;;;;;;4982136;28;20225;-77
2022/03/07 12:35:37;;;;;;;12.80;10.98;;;11.80;74.00;;;;;;4979493;28;20205;-76
2022/03/07 12:38:07;;;;;;;13.43;11.68;;;11.90;73.80;;;;;;4986390;28;20221;-76